JST204 NZAA-YSSY
Flight info
| Callsign | JST204 |
|---|---|
| Flight time | 3h 5m |
| Altitude | 32000 |
| Route | PEBLU N759 SASRO DCT 38S160E 36S155E DCT PLUGA DCT RIKNI N774 MARLN |
| Aircraft | A321/M-SADE3FGHIJ3J4J5M1RWYZ/LB1D1 |
Departure
| Time | 2026-05-08 04:08 |
|---|---|
| Airport | Auckland International Airport (NZAA) |
Arrival
| Time | 2026-05-08 07:14 |
|---|---|
| Airport | Sydney Kingsford Smith International Airport (YSSY) |
| Time | Latitude | Longitude | Altitude | Speed | Heading |
|---|---|---|---|---|---|
| 2026-05-08 03:20 | -37.00705 | 174.78299 | 26 ft | 0 kts | 295° |
| 2026-05-08 03:58 | -37.00708 | 174.78305 | 27 ft | 3 kts | 295° |
| 2026-05-08 03:58 | -37.00716 | 174.78326 | 27 ft | 3 kts | 295° |
| 2026-05-08 03:58 | -37.00724 | 174.78348 | 25 ft | 3 kts | 290° |
| 2026-05-08 03:58 | -37.00728 | 174.78372 | 30 ft | 3 kts | 260° |
| 2026-05-08 03:59 | -37.00722 | 174.78395 | 29 ft | 3 kts | 230° |
| 2026-05-08 03:59 | -37.00708 | 174.78409 | 28 ft | 1 kts | 209° |
| 2026-05-08 03:59 | -37.00708 | 174.78410 | 28 ft | 0 kts | 209° |
| 2026-05-08 04:02 | -37.00710 | 174.78409 | 30 ft | 1 kts | 209° |
| 2026-05-08 04:02 | -37.00722 | 174.78402 | 29 ft | 3 kts | 204° |
| 2026-05-08 04:02 | -37.00748 | 174.78389 | 27 ft | 5 kts | 195° |
| 2026-05-08 04:03 | -37.00791 | 174.78380 | 28 ft | 7 kts | 188° |
| 2026-05-08 04:03 | -37.00895 | 174.78366 | 29 ft | 8 kts | 185° |
| 2026-05-08 04:03 | -37.00956 | 174.78363 | 28 ft | 9 kts | 175° |
| 2026-05-08 04:04 | -37.01018 | 174.78384 | 26 ft | 9 kts | 167° |
| 2026-05-08 04:04 | -37.01077 | 174.78354 | 25 ft | 10 kts | 228° |
| 2026-05-08 04:04 | -37.01107 | 174.78277 | 27 ft | 10 kts | 250° |
| 2026-05-08 04:04 | -37.01132 | 174.78192 | 25 ft | 11 kts | 249° |
| 2026-05-08 04:05 | -37.01158 | 174.78105 | 28 ft | 11 kts | 251° |
| 2026-05-08 04:05 | -37.01181 | 174.78014 | 25 ft | 11 kts | 251° |
| 2026-05-08 04:05 | -37.01206 | 174.77920 | 25 ft | 11 kts | 251° |
| 2026-05-08 04:05 | -37.01233 | 174.77826 | 25 ft | 10 kts | 249° |
| 2026-05-08 04:06 | -37.01271 | 174.77777 | 28 ft | 8 kts | 193° |
| 2026-05-08 04:06 | -37.01315 | 174.77788 | 28 ft | 4 kts | 162° |
| 2026-05-08 04:06 | -37.01345 | 174.77802 | 31 ft | 5 kts | 159° |
| 2026-05-08 04:06 | -37.01382 | 174.77818 | 26 ft | 6 kts | 161° |
| 2026-05-08 04:07 | -37.01404 | 174.77827 | 26 ft | 2 kts | 161° |
| 2026-05-08 04:07 | -37.01419 | 174.77843 | 32 ft | 4 kts | 111° |
| 2026-05-08 04:07 | -37.01414 | 174.77867 | 27 ft | 2 kts | 71° |
| 2026-05-08 04:07 | -37.01391 | 174.77950 | 25 ft | 35 kts | 71° |
| 2026-05-08 04:08 | -37.01232 | 174.78527 | 28 ft | 103 kts | 71° |
| 2026-05-08 04:08 | -37.00934 | 174.79605 | 27 ft | 158 kts | 71° |
| 2026-05-08 04:08 | -37.00523 | 174.81036 | 323 ft | 179 kts | 65° |
| 2026-05-08 04:08 | -37.00105 | 174.82501 | 1055 ft | 178 kts | 65° |
| 2026-05-08 04:09 | -36.99694 | 174.84007 | 1340 ft | 192 kts | 64° |
| 2026-05-08 04:09 | -36.99252 | 174.85608 | 1641 ft | 200 kts | 64° |
| 2026-05-08 04:09 | -36.98798 | 174.87258 | 2152 ft | 200 kts | 63° |
| 2026-05-08 04:09 | -36.98340 | 174.88932 | 2690 ft | 202 kts | 62° |
| 2026-05-08 04:10 | -36.98072 | 174.90696 | 3162 ft | 220 kts | 89° |
| 2026-05-08 04:10 | -36.98760 | 174.92455 | 3628 ft | 245 kts | 130° |
| 2026-05-08 04:10 | -37.00254 | 174.93554 | 4114 ft | 257 kts | 165° |
| 2026-05-08 04:10 | -37.02024 | 174.93483 | 4552 ft | 257 kts | 202° |
| 2026-05-08 04:11 | -37.03628 | 174.92548 | 5040 ft | 252 kts | 220° |
| 2026-05-08 04:11 | -37.04930 | 174.91137 | 5551 ft | 244 kts | 239° |
| 2026-05-08 04:11 | -37.05794 | 174.89361 | 5969 ft | 240 kts | 257° |
| 2026-05-08 04:11 | -37.06370 | 174.87331 | 6105 ft | 258 kts | 259° |
| 2026-05-08 04:12 | -37.06763 | 174.85890 | 6273 ft | 269 kts | 259° |
| 2026-05-08 04:12 | -37.07584 | 174.82884 | 6983 ft | 275 kts | 258° |
| 2026-05-08 04:12 | -37.07998 | 174.81380 | 7384 ft | 276 kts | 258° |
| 2026-05-08 04:12 | -37.08627 | 174.79098 | 8005 ft | 278 kts | 257° |
| 2026-05-08 04:13 | -37.09264 | 174.76801 | 8617 ft | 280 kts | 257° |
| 2026-05-08 04:13 | -37.09898 | 174.74487 | 9256 ft | 281 kts | 257° |
| 2026-05-08 04:13 | -37.10520 | 174.72163 | 9872 ft | 282 kts | 257° |
| 2026-05-08 04:13 | -37.11239 | 174.69841 | 10269 ft | 295 kts | 251° |
| 2026-05-08 04:14 | -37.12185 | 174.67456 | 10390 ft | 316 kts | 248° |
| 2026-05-08 04:14 | -37.13281 | 174.64974 | 10517 ft | 335 kts | 246° |
| 2026-05-08 04:14 | -37.14472 | 174.62372 | 10629 ft | 353 kts | 245° |
| 2026-05-08 04:14 | -37.15720 | 174.59650 | 10807 ft | 366 kts | 245° |
| 2026-05-08 04:15 | -37.16989 | 174.56859 | 11281 ft | 370 kts | 246° |
| 2026-05-08 04:15 | -37.18254 | 174.54029 | 11805 ft | 373 kts | 246° |
| 2026-05-08 04:15 | -37.19512 | 174.51174 | 12322 ft | 376 kts | 246° |
| 2026-05-08 04:15 | -37.20773 | 174.48283 | 12843 ft | 379 kts | 246° |
| 2026-05-08 04:16 | -37.22035 | 174.45370 | 13369 ft | 382 kts | 247° |
| 2026-05-08 04:16 | -37.23308 | 174.42430 | 13875 ft | 385 kts | 247° |
| 2026-05-08 04:16 | -37.24588 | 174.39472 | 14352 ft | 387 kts | 246° |
| 2026-05-08 04:16 | -37.25861 | 174.36537 | 14851 ft | 389 kts | 246° |
| 2026-05-08 04:17 | -37.27172 | 174.33508 | 15359 ft | 390 kts | 246° |
| 2026-05-08 04:17 | -37.28470 | 174.30504 | 15872 ft | 392 kts | 246° |
| 2026-05-08 04:17 | -37.29755 | 174.27530 | 16373 ft | 394 kts | 246° |
| 2026-05-08 04:17 | -37.31061 | 174.24503 | 16876 ft | 395 kts | 246° |
| 2026-05-08 04:18 | -37.32363 | 174.21454 | 17389 ft | 396 kts | 249° |
| 2026-05-08 04:18 | -37.33347 | 174.18248 | 17870 ft | 392 kts | 257° |
| 2026-05-08 04:18 | -37.34157 | 174.14969 | 18319 ft | 394 kts | 257° |
| 2026-05-08 04:18 | -37.34978 | 174.11672 | 18728 ft | 396 kts | 257° |
| 2026-05-08 04:19 | -37.35804 | 174.08360 | 19105 ft | 398 kts | 257° |
| 2026-05-08 04:19 | -37.36634 | 174.05031 | 19476 ft | 401 kts | 257° |
| 2026-05-08 04:19 | -37.37468 | 174.01678 | 19827 ft | 403 kts | 257° |
| 2026-05-08 04:19 | -37.38305 | 173.98305 | 20186 ft | 405 kts | 257° |
| 2026-05-08 04:20 | -37.39148 | 173.94907 | 20532 ft | 408 kts | 257° |
| 2026-05-08 04:20 | -37.39995 | 173.91491 | 20869 ft | 410 kts | 257° |
| 2026-05-08 04:20 | -37.40843 | 173.88061 | 21193 ft | 412 kts | 257° |
| 2026-05-08 04:20 | -37.41695 | 173.84603 | 21511 ft | 415 kts | 257° |
| 2026-05-08 04:21 | -37.42550 | 173.81128 | 21832 ft | 417 kts | 257° |
| 2026-05-08 04:21 | -37.43412 | 173.77632 | 22151 ft | 419 kts | 257° |
| 2026-05-08 04:21 | -37.44277 | 173.74121 | 22461 ft | 421 kts | 257° |
| 2026-05-08 04:21 | -37.45142 | 173.70591 | 22767 ft | 423 kts | 257° |
| 2026-05-08 04:22 | -37.46010 | 173.67043 | 23070 ft | 426 kts | 257° |
| 2026-05-08 04:22 | -37.46873 | 173.63521 | 23373 ft | 428 kts | 257° |
| 2026-05-08 04:22 | -37.47750 | 173.59935 | 23620 ft | 430 kts | 257° |
| 2026-05-08 04:22 | -37.48630 | 173.56329 | 23883 ft | 432 kts | 257° |
| 2026-05-08 04:23 | -37.49511 | 173.52706 | 24140 ft | 434 kts | 258° |
| 2026-05-08 04:23 | -37.50397 | 173.49064 | 24388 ft | 436 kts | 258° |
| 2026-05-08 04:23 | -37.51286 | 173.45412 | 24637 ft | 437 kts | 258° |
| 2026-05-08 04:23 | -37.52178 | 173.41740 | 24878 ft | 439 kts | 258° |
| 2026-05-08 04:24 | -37.53071 | 173.38050 | 25129 ft | 441 kts | 258° |
| 2026-05-08 04:24 | -37.53966 | 173.34347 | 25370 ft | 443 kts | 258° |
| 2026-05-08 04:24 | -37.54864 | 173.30628 | 25603 ft | 445 kts | 258° |
| 2026-05-08 04:24 | -37.55764 | 173.26894 | 25844 ft | 446 kts | 258° |
| 2026-05-08 04:25 | -37.56670 | 173.23142 | 26077 ft | 448 kts | 258° |
| 2026-05-08 04:25 | -37.57584 | 173.19378 | 26316 ft | 450 kts | 258° |
| 2026-05-08 04:25 | -37.58501 | 173.15595 | 26542 ft | 452 kts | 258° |
| 2026-05-08 04:25 | -37.59416 | 173.11791 | 26775 ft | 454 kts | 258° |
| 2026-05-08 04:26 | -37.60326 | 173.07975 | 27059 ft | 455 kts | 258° |
| 2026-05-08 04:26 | -37.61238 | 173.04152 | 27403 ft | 454 kts | 258° |
| 2026-05-08 04:26 | -37.62146 | 173.00338 | 27732 ft | 454 kts | 258° |
| 2026-05-08 04:26 | -37.63056 | 172.96520 | 28079 ft | 454 kts | 259° |
| 2026-05-08 04:27 | -37.63963 | 172.92706 | 28391 ft | 454 kts | 259° |
| 2026-05-08 04:27 | -37.64868 | 172.88893 | 28698 ft | 454 kts | 259° |
| 2026-05-08 04:27 | -37.65771 | 172.85075 | 28998 ft | 454 kts | 259° |
| 2026-05-08 04:27 | -37.66675 | 172.81254 | 29309 ft | 454 kts | 259° |
| 2026-05-08 04:28 | -37.67576 | 172.77440 | 29625 ft | 454 kts | 259° |
| 2026-05-08 04:28 | -37.68475 | 172.73623 | 29920 ft | 453 kts | 259° |
| 2026-05-08 04:28 | -37.69371 | 172.69813 | 30179 ft | 453 kts | 259° |
| 2026-05-08 04:28 | -37.70267 | 172.66003 | 30465 ft | 452 kts | 259° |
| 2026-05-08 04:29 | -37.71147 | 172.62257 | 30750 ft | 451 kts | 259° |
| 2026-05-08 04:29 | -37.72036 | 172.58469 | 31052 ft | 449 kts | 259° |
| 2026-05-08 04:29 | -37.72921 | 172.54692 | 31349 ft | 448 kts | 259° |
| 2026-05-08 04:29 | -37.73799 | 172.50930 | 31645 ft | 447 kts | 259° |
| 2026-05-08 04:30 | -37.75552 | 172.43404 | 31758 ft | 445 kts | 259° |
| 2026-05-08 04:30 | -37.77293 | 172.35905 | 31754 ft | 445 kts | 260° |
| 2026-05-08 04:31 | -37.79035 | 172.28401 | 31746 ft | 445 kts | 260° |
| 2026-05-08 04:31 | -37.80763 | 172.20900 | 31741 ft | 445 kts | 260° |
| 2026-05-08 04:32 | -37.82488 | 172.13389 | 31738 ft | 445 kts | 260° |
| 2026-05-08 04:32 | -37.84210 | 172.05878 | 31736 ft | 445 kts | 260° |
| 2026-05-08 04:33 | -37.85931 | 171.98365 | 31736 ft | 445 kts | 260° |
| 2026-05-08 04:33 | -37.87628 | 171.90899 | 31731 ft | 444 kts | 260° |
| 2026-05-08 04:34 | -37.89337 | 171.83383 | 31732 ft | 444 kts | 260° |
| 2026-05-08 04:34 | -37.91045 | 171.75860 | 31724 ft | 444 kts | 260° |
| 2026-05-08 04:35 | -37.92737 | 171.68340 | 31727 ft | 444 kts | 260° |
| 2026-05-08 04:35 | -37.94427 | 171.60816 | 31716 ft | 444 kts | 260° |
| 2026-05-08 04:36 | -37.96118 | 171.53297 | 31713 ft | 444 kts | 261° |
| 2026-05-08 04:36 | -37.97798 | 171.45771 | 31707 ft | 444 kts | 261° |
| 2026-05-08 04:37 | -37.99468 | 171.38241 | 31705 ft | 443 kts | 261° |
| 2026-05-08 04:37 | -38.01133 | 171.30720 | 31696 ft | 443 kts | 261° |
| 2026-05-08 04:38 | -38.02803 | 171.23194 | 31697 ft | 443 kts | 261° |
| 2026-05-08 04:38 | -38.04454 | 171.15718 | 31685 ft | 443 kts | 261° |
| 2026-05-08 04:39 | -38.06105 | 171.08189 | 31685 ft | 443 kts | 261° |
| 2026-05-08 04:39 | -38.07753 | 171.00653 | 31684 ft | 443 kts | 261° |
| 2026-05-08 04:40 | -38.09395 | 170.93118 | 31682 ft | 443 kts | 261° |
| 2026-05-08 04:40 | -38.10971 | 170.85574 | 31674 ft | 439 kts | 266° |
| 2026-05-08 04:41 | -38.11724 | 170.77941 | 31668 ft | 435 kts | 269° |
| 2026-05-08 04:41 | -38.12433 | 170.70306 | 31670 ft | 435 kts | 269° |
| 2026-05-08 04:42 | -38.13135 | 170.62676 | 31663 ft | 435 kts | 269° |
| 2026-05-08 04:42 | -38.13837 | 170.55099 | 31654 ft | 435 kts | 269° |
| 2026-05-08 04:43 | -38.14530 | 170.47472 | 31654 ft | 434 kts | 269° |
| 2026-05-08 04:43 | -38.15218 | 170.39852 | 31651 ft | 434 kts | 269° |
| 2026-05-08 04:44 | -38.15893 | 170.32235 | 31653 ft | 434 kts | 269° |
| 2026-05-08 04:44 | -38.16576 | 170.24629 | 31645 ft | 433 kts | 269° |
| 2026-05-08 04:45 | -38.17247 | 170.17025 | 31642 ft | 432 kts | 269° |
| 2026-05-08 04:45 | -38.17904 | 170.09432 | 31643 ft | 432 kts | 269° |
| 2026-05-08 04:46 | -38.18567 | 170.01848 | 31642 ft | 432 kts | 269° |
| 2026-05-08 04:46 | -38.19219 | 169.94318 | 31627 ft | 431 kts | 269° |
| 2026-05-08 04:47 | -38.19864 | 169.86747 | 31631 ft | 430 kts | 270° |
| 2026-05-08 04:47 | -38.20507 | 169.79187 | 31621 ft | 430 kts | 269° |
| 2026-05-08 04:48 | -38.21143 | 169.71630 | 31631 ft | 430 kts | 270° |
| 2026-05-08 04:48 | -38.21775 | 169.64081 | 31628 ft | 429 kts | 270° |
| 2026-05-08 04:49 | -38.22406 | 169.56535 | 31617 ft | 429 kts | 270° |
| 2026-05-08 04:49 | -38.23029 | 169.48997 | 31615 ft | 428 kts | 270° |
| 2026-05-08 04:50 | -38.23645 | 169.41462 | 31607 ft | 428 kts | 270° |
| 2026-05-08 04:50 | -38.24251 | 169.33936 | 31602 ft | 428 kts | 270° |
| 2026-05-08 04:51 | -38.24856 | 169.26406 | 31604 ft | 428 kts | 270° |
| 2026-05-08 04:51 | -38.25452 | 169.18939 | 31588 ft | 427 kts | 270° |
| 2026-05-08 04:52 | -38.26043 | 169.11421 | 31589 ft | 427 kts | 270° |
| 2026-05-08 04:52 | -38.26637 | 169.03906 | 31580 ft | 427 kts | 270° |
| 2026-05-08 04:53 | -38.27223 | 168.96403 | 31586 ft | 426 kts | 270° |
| 2026-05-08 04:53 | -38.27800 | 168.88899 | 31576 ft | 426 kts | 270° |
| 2026-05-08 04:54 | -38.28377 | 168.81404 | 31573 ft | 426 kts | 270° |
| 2026-05-08 04:54 | -38.28941 | 168.73906 | 31564 ft | 425 kts | 270° |
| 2026-05-08 04:55 | -38.29494 | 168.66412 | 31570 ft | 425 kts | 270° |
| 2026-05-08 04:55 | -38.30053 | 168.58932 | 31558 ft | 425 kts | 270° |
| 2026-05-08 04:56 | -38.30608 | 168.51451 | 31557 ft | 424 kts | 270° |
| 2026-05-08 04:56 | -38.31155 | 168.43973 | 31560 ft | 424 kts | 270° |
| 2026-05-08 04:57 | -38.31696 | 168.36549 | 31554 ft | 424 kts | 270° |
| 2026-05-08 04:57 | -38.32235 | 168.29079 | 31549 ft | 424 kts | 270° |
| 2026-05-08 04:58 | -38.32768 | 168.21606 | 31547 ft | 423 kts | 270° |
| 2026-05-08 04:58 | -38.33297 | 168.14136 | 31538 ft | 423 kts | 270° |
| 2026-05-08 04:59 | -38.33818 | 168.06671 | 31534 ft | 423 kts | 270° |
| 2026-05-08 04:59 | -38.34335 | 167.99196 | 31526 ft | 423 kts | 270° |
| 2026-05-08 05:00 | -38.34848 | 167.91727 | 31526 ft | 424 kts | 270° |
| 2026-05-08 05:00 | -38.35362 | 167.84250 | 31524 ft | 424 kts | 270° |
| 2026-05-08 05:01 | -38.35856 | 167.76769 | 31520 ft | 424 kts | 270° |
| 2026-05-08 05:01 | -38.36356 | 167.69287 | 31510 ft | 424 kts | 270° |
| 2026-05-08 05:02 | -38.36857 | 167.61855 | 31511 ft | 424 kts | 270° |
| 2026-05-08 05:02 | -38.37348 | 167.54317 | 31501 ft | 424 kts | 270° |
| 2026-05-08 05:03 | -38.37827 | 167.46877 | 31504 ft | 424 kts | 270° |
| 2026-05-08 05:03 | -38.38310 | 167.39379 | 31488 ft | 424 kts | 270° |
| 2026-05-08 05:04 | -38.38787 | 167.31882 | 31487 ft | 424 kts | 270° |
| 2026-05-08 05:04 | -38.39256 | 167.24383 | 31513 ft | 425 kts | 270° |
| 2026-05-08 05:05 | -38.39726 | 167.16883 | 31509 ft | 425 kts | 270° |
| 2026-05-08 05:05 | -38.40186 | 167.09379 | 31529 ft | 424 kts | 270° |
| 2026-05-08 05:06 | -38.40637 | 167.01924 | 31532 ft | 424 kts | 270° |
| 2026-05-08 05:06 | -38.41087 | 166.94427 | 31550 ft | 424 kts | 270° |
| 2026-05-08 05:07 | -38.41538 | 166.86922 | 31553 ft | 424 kts | 270° |
| 2026-05-08 05:07 | -38.41985 | 166.79423 | 31573 ft | 424 kts | 270° |
| 2026-05-08 05:08 | -38.42421 | 166.71924 | 31576 ft | 424 kts | 270° |
| 2026-05-08 05:08 | -38.42854 | 166.64428 | 31597 ft | 424 kts | 271° |
| 2026-05-08 05:09 | -38.43286 | 166.56928 | 31596 ft | 424 kts | 270° |
| 2026-05-08 05:09 | -38.43717 | 166.49435 | 31613 ft | 424 kts | 271° |
| 2026-05-08 05:10 | -38.44267 | 166.39462 | 31629 ft | 423 kts | 271° |
| 2026-05-08 05:11 | -38.44737 | 166.30758 | 31632 ft | 423 kts | 271° |
| 2026-05-08 05:11 | -38.45146 | 166.23276 | 31651 ft | 423 kts | 271° |
| 2026-05-08 05:12 | -38.45548 | 166.15792 | 31657 ft | 423 kts | 271° |
| 2026-05-08 05:12 | -38.45877 | 166.09572 | 31680 ft | 423 kts | 271° |
| 2026-05-08 05:13 | -38.46271 | 166.02096 | 31685 ft | 422 kts | 271° |
| 2026-05-08 05:13 | -38.46659 | 165.94615 | 31704 ft | 422 kts | 271° |
| 2026-05-08 05:14 | -38.47035 | 165.87140 | 31709 ft | 422 kts | 271° |
| 2026-05-08 05:14 | -38.47411 | 165.79668 | 31729 ft | 422 kts | 271° |
| 2026-05-08 05:15 | -38.47788 | 165.72196 | 31733 ft | 422 kts | 271° |
| 2026-05-08 05:15 | -38.48156 | 165.64729 | 31754 ft | 422 kts | 271° |
| 2026-05-08 05:16 | -38.48520 | 165.57310 | 31756 ft | 421 kts | 271° |
| 2026-05-08 05:16 | -38.48872 | 165.49851 | 31781 ft | 421 kts | 271° |
| 2026-05-08 05:17 | -38.49218 | 165.42396 | 31786 ft | 421 kts | 271° |
| 2026-05-08 05:17 | -38.49571 | 165.34939 | 31806 ft | 421 kts | 271° |
| 2026-05-08 05:18 | -38.49920 | 165.27486 | 31814 ft | 420 kts | 271° |
| 2026-05-08 05:18 | -38.50253 | 165.20034 | 31841 ft | 420 kts | 271° |
| 2026-05-08 05:19 | -38.50585 | 165.12593 | 31848 ft | 420 kts | 271° |
| 2026-05-08 05:19 | -38.50916 | 165.05144 | 32585 ft | 419 kts | 271° |
| 2026-05-08 05:20 | -38.51235 | 164.97771 | 32589 ft | 414 kts | 271° |
| 2026-05-08 05:20 | -38.51552 | 164.90442 | 32600 ft | 414 kts | 271° |
| 2026-05-08 05:21 | -38.51868 | 164.83107 | 32607 ft | 414 kts | 271° |
| 2026-05-08 05:21 | -38.52169 | 164.75820 | 32619 ft | 414 kts | 271° |
| 2026-05-08 05:22 | -38.52464 | 164.68477 | 32622 ft | 414 kts | 271° |
| 2026-05-08 05:22 | -38.52759 | 164.61128 | 32631 ft | 415 kts | 271° |
| 2026-05-08 05:23 | -38.53048 | 164.53775 | 32642 ft | 415 kts | 271° |
| 2026-05-08 05:23 | -38.53332 | 164.46414 | 32654 ft | 415 kts | 271° |
| 2026-05-08 05:24 | -38.53620 | 164.39043 | 32661 ft | 416 kts | 271° |
| 2026-05-08 05:24 | -38.53903 | 164.31721 | 32668 ft | 416 kts | 271° |
| 2026-05-08 05:25 | -38.54183 | 164.24342 | 32677 ft | 416 kts | 270° |
| 2026-05-08 05:25 | -38.54448 | 164.16957 | 32690 ft | 416 kts | 271° |
| 2026-05-08 05:26 | -38.54710 | 164.09568 | 32698 ft | 416 kts | 270° |
| 2026-05-08 05:26 | -38.54976 | 164.02178 | 32704 ft | 416 kts | 270° |
| 2026-05-08 05:27 | -38.55230 | 163.94788 | 32709 ft | 416 kts | 270° |
| 2026-05-08 05:27 | -38.55477 | 163.87403 | 32717 ft | 416 kts | 271° |
| 2026-05-08 05:28 | -38.55723 | 163.80016 | 32738 ft | 417 kts | 270° |
| 2026-05-08 05:28 | -38.55845 | 163.76368 | 32540 ft | 416 kts | 270° |
| 2026-05-08 05:28 | -38.55966 | 163.72675 | 32560 ft | 416 kts | 270° |
| 2026-05-08 05:29 | -38.56206 | 163.65281 | 32561 ft | 417 kts | 270° |
| 2026-05-08 05:29 | -38.56436 | 163.57882 | 32588 ft | 416 kts | 270° |
| 2026-05-08 05:29 | -38.56552 | 163.54183 | 32724 ft | 417 kts | 270° |
| 2026-05-08 05:30 | -38.56669 | 163.50489 | 32855 ft | 417 kts | 270° |
| 2026-05-08 05:30 | -38.56782 | 163.46787 | 32994 ft | 417 kts | 270° |
| 2026-05-08 05:30 | -38.56892 | 163.43090 | 33131 ft | 417 kts | 270° |
| 2026-05-08 05:30 | -38.57000 | 163.39390 | 33262 ft | 416 kts | 270° |
| 2026-05-08 05:31 | -38.57106 | 163.35691 | 33407 ft | 416 kts | 270° |
| 2026-05-08 05:31 | -38.57210 | 163.32002 | 33549 ft | 416 kts | 270° |
| 2026-05-08 05:31 | -38.57313 | 163.28305 | 33579 ft | 416 kts | 270° |
| 2026-05-08 05:32 | -38.57523 | 163.20922 | 33582 ft | 416 kts | 270° |
| 2026-05-08 05:32 | -38.57734 | 163.13543 | 33585 ft | 416 kts | 270° |
| 2026-05-08 05:33 | -38.57934 | 163.06159 | 33587 ft | 416 kts | 270° |
| 2026-05-08 05:33 | -38.57844 | 162.98804 | 33599 ft | 413 kts | 281° |
| 2026-05-08 05:34 | -38.56609 | 162.91700 | 33601 ft | 413 kts | 284° |
| 2026-05-08 05:34 | -38.55314 | 162.84551 | 33605 ft | 413 kts | 284° |
| 2026-05-08 05:35 | -38.54015 | 162.77403 | 33607 ft | 413 kts | 284° |
| 2026-05-08 05:35 | -38.52714 | 162.70256 | 33610 ft | 413 kts | 284° |
| 2026-05-08 05:36 | -38.51413 | 162.63107 | 33614 ft | 414 kts | 284° |
| 2026-05-08 05:36 | -38.50105 | 162.55953 | 33621 ft | 414 kts | 284° |
| 2026-05-08 05:37 | -38.48793 | 162.48801 | 33621 ft | 414 kts | 284° |
| 2026-05-08 05:37 | -38.47468 | 162.41646 | 33625 ft | 414 kts | 284° |
| 2026-05-08 05:38 | -38.46141 | 162.34489 | 33630 ft | 414 kts | 284° |
| 2026-05-08 05:38 | -38.44818 | 162.27383 | 33635 ft | 414 kts | 284° |
| 2026-05-08 05:39 | -38.43482 | 162.20179 | 33638 ft | 414 kts | 284° |
| 2026-05-08 05:39 | -38.42158 | 162.13080 | 33641 ft | 414 kts | 284° |
| 2026-05-08 05:40 | -38.40816 | 162.05935 | 33644 ft | 414 kts | 284° |
| 2026-05-08 05:40 | -38.39458 | 161.98793 | 33650 ft | 414 kts | 284° |
| 2026-05-08 05:41 | -38.38103 | 161.91652 | 33647 ft | 414 kts | 284° |
| 2026-05-08 05:41 | -38.36741 | 161.84513 | 33652 ft | 415 kts | 284° |
| 2026-05-08 05:42 | -38.35387 | 161.77375 | 33655 ft | 415 kts | 284° |
| 2026-05-08 05:42 | -38.34026 | 161.70237 | 33658 ft | 415 kts | 284° |
| 2026-05-08 05:43 | -38.32664 | 161.63151 | 33661 ft | 415 kts | 284° |
| 2026-05-08 05:43 | -38.31292 | 161.56018 | 33664 ft | 415 kts | 284° |
| 2026-05-08 05:44 | -38.29913 | 161.48885 | 33667 ft | 415 kts | 284° |
| 2026-05-08 05:44 | -38.28528 | 161.41755 | 33671 ft | 415 kts | 284° |
| 2026-05-08 05:45 | -38.27138 | 161.34622 | 33678 ft | 415 kts | 284° |
| 2026-05-08 05:45 | -38.25741 | 161.27497 | 33678 ft | 415 kts | 284° |
| 2026-05-08 05:46 | -38.24340 | 161.20371 | 33679 ft | 415 kts | 284° |
| 2026-05-08 05:46 | -38.22945 | 161.13239 | 33683 ft | 415 kts | 284° |
| 2026-05-08 05:47 | -38.21544 | 161.06112 | 33683 ft | 416 kts | 284° |
| 2026-05-08 05:47 | -38.20144 | 160.99030 | 33685 ft | 416 kts | 284° |
| 2026-05-08 05:48 | -38.18723 | 160.91901 | 33687 ft | 416 kts | 284° |
| 2026-05-08 05:48 | -38.17294 | 160.84779 | 33692 ft | 416 kts | 284° |
| 2026-05-08 05:49 | -38.15861 | 160.77647 | 33694 ft | 417 kts | 284° |
| 2026-05-08 05:49 | -38.14427 | 160.70514 | 33695 ft | 417 kts | 284° |
| 2026-05-08 05:50 | -38.12999 | 160.63374 | 33698 ft | 417 kts | 284° |
| 2026-05-08 05:50 | -38.11554 | 160.56244 | 33701 ft | 417 kts | 284° |
| 2026-05-08 05:51 | -38.10100 | 160.49118 | 33705 ft | 417 kts | 284° |
| 2026-05-08 05:51 | -38.08645 | 160.41988 | 33705 ft | 417 kts | 284° |
| 2026-05-08 05:52 | -38.07202 | 160.34857 | 33706 ft | 417 kts | 284° |
| 2026-05-08 05:52 | -38.05757 | 160.27773 | 33706 ft | 417 kts | 284° |
| 2026-05-08 05:53 | -38.04289 | 160.20649 | 33711 ft | 417 kts | 284° |
| 2026-05-08 05:53 | -38.02816 | 160.13525 | 33714 ft | 418 kts | 284° |
| 2026-05-08 05:54 | -38.01342 | 160.06402 | 33713 ft | 418 kts | 284° |
| 2026-05-08 05:54 | -37.99736 | 159.99327 | 33709 ft | 418 kts | 291° |
| 2026-05-08 05:55 | -37.97298 | 159.92621 | 33710 ft | 419 kts | 293° |
| 2026-05-08 05:55 | -37.94818 | 159.85937 | 33714 ft | 419 kts | 293° |
| 2026-05-08 05:56 | -37.92334 | 159.79259 | 33717 ft | 419 kts | 293° |
| 2026-05-08 05:56 | -37.89869 | 159.72637 | 33722 ft | 418 kts | 293° |
| 2026-05-08 05:57 | -37.87392 | 159.65977 | 33719 ft | 418 kts | 293° |
| 2026-05-08 05:57 | -37.84913 | 159.59324 | 33724 ft | 418 kts | 293° |
| 2026-05-08 05:58 | -37.82425 | 159.52679 | 33722 ft | 418 kts | 293° |
| 2026-05-08 05:58 | -37.79928 | 159.46029 | 33724 ft | 418 kts | 293° |
| 2026-05-08 05:59 | -37.77431 | 159.39384 | 33725 ft | 418 kts | 293° |
| 2026-05-08 05:59 | -37.74930 | 159.32743 | 33723 ft | 419 kts | 293° |
| 2026-05-08 06:00 | -37.72425 | 159.26109 | 33722 ft | 418 kts | 293° |
| 2026-05-08 06:00 | -37.69920 | 159.19478 | 33726 ft | 418 kts | 293° |
| 2026-05-08 06:01 | -37.67426 | 159.12903 | 33728 ft | 418 kts | 293° |
| 2026-05-08 06:01 | -37.64909 | 159.06293 | 33725 ft | 418 kts | 293° |
| 2026-05-08 06:02 | -37.62393 | 158.99688 | 33726 ft | 418 kts | 293° |
| 2026-05-08 06:02 | -37.59878 | 158.93093 | 33726 ft | 417 kts | 293° |
| 2026-05-08 06:03 | -37.57355 | 158.86509 | 33725 ft | 417 kts | 293° |
| 2026-05-08 06:03 | -37.54836 | 158.79926 | 33726 ft | 417 kts | 293° |
| 2026-05-08 06:04 | -37.52318 | 158.73349 | 33734 ft | 416 kts | 293° |
| 2026-05-08 06:04 | -37.49794 | 158.66783 | 33740 ft | 416 kts | 293° |
| 2026-05-08 06:05 | -37.47261 | 158.60229 | 33733 ft | 416 kts | 293° |
| 2026-05-08 06:05 | -37.44725 | 158.53677 | 33735 ft | 416 kts | 293° |
| 2026-05-08 06:06 | -37.42193 | 158.47124 | 33742 ft | 416 kts | 293° |
| 2026-05-08 06:06 | -37.39656 | 158.40573 | 33745 ft | 417 kts | 293° |
| 2026-05-08 06:07 | -37.37123 | 158.34073 | 33744 ft | 417 kts | 293° |
| 2026-05-08 06:07 | -37.34576 | 158.27520 | 33742 ft | 417 kts | 293° |
| 2026-05-08 06:08 | -37.32017 | 158.20970 | 33741 ft | 418 kts | 293° |
| 2026-05-08 06:08 | -37.29451 | 158.14429 | 33745 ft | 418 kts | 293° |
| 2026-05-08 06:09 | -37.26883 | 158.07886 | 33749 ft | 418 kts | 293° |
| 2026-05-08 06:09 | -37.24313 | 158.01347 | 33749 ft | 418 kts | 293° |
| 2026-05-08 06:10 | -37.21748 | 157.94811 | 33750 ft | 418 kts | 293° |
| 2026-05-08 06:10 | -37.19173 | 157.88278 | 33751 ft | 418 kts | 293° |
| 2026-05-08 06:11 | -37.16585 | 157.81754 | 33765 ft | 418 kts | 293° |
| 2026-05-08 06:11 | -37.14015 | 157.75278 | 33753 ft | 418 kts | 293° |
| 2026-05-08 06:12 | -37.11424 | 157.68755 | 33762 ft | 418 kts | 293° |
| 2026-05-08 06:12 | -37.08833 | 157.62243 | 33756 ft | 418 kts | 293° |
| 2026-05-08 06:13 | -37.06239 | 157.55726 | 33751 ft | 418 kts | 293° |
| 2026-05-08 06:13 | -37.03643 | 157.49216 | 33766 ft | 418 kts | 293° |
| 2026-05-08 06:14 | -37.01036 | 157.42710 | 33767 ft | 418 kts | 293° |
| 2026-05-08 06:14 | -36.98865 | 157.37304 | 33761 ft | 418 kts | 293° |
| 2026-05-08 06:15 | -36.96249 | 157.30801 | 33767 ft | 419 kts | 293° |
| 2026-05-08 06:15 | -36.93639 | 157.24296 | 33770 ft | 419 kts | 292° |
| 2026-05-08 06:16 | -36.91018 | 157.17796 | 33769 ft | 419 kts | 293° |
| 2026-05-08 06:16 | -36.88388 | 157.11306 | 33775 ft | 419 kts | 293° |
| 2026-05-08 06:17 | -36.84437 | 157.01578 | 33778 ft | 419 kts | 292° |
| 2026-05-08 06:17 | -36.81808 | 156.95091 | 33784 ft | 419 kts | 292° |
| 2026-05-08 06:18 | -36.79192 | 156.88653 | 33783 ft | 419 kts | 292° |
| 2026-05-08 06:18 | -36.76553 | 156.82180 | 33787 ft | 419 kts | 292° |
| 2026-05-08 06:19 | -36.73905 | 156.75720 | 33792 ft | 419 kts | 292° |
| 2026-05-08 06:19 | -36.71252 | 156.69260 | 33790 ft | 418 kts | 292° |
| 2026-05-08 06:20 | -36.68603 | 156.62806 | 33792 ft | 418 kts | 292° |
| 2026-05-08 06:20 | -36.65955 | 156.56351 | 33803 ft | 418 kts | 292° |
| 2026-05-08 06:21 | -36.63297 | 156.49905 | 33800 ft | 418 kts | 292° |
| 2026-05-08 06:21 | -36.60637 | 156.43461 | 33799 ft | 419 kts | 292° |
| 2026-05-08 06:22 | -36.57970 | 156.37019 | 33813 ft | 419 kts | 292° |
| 2026-05-08 06:22 | -36.55299 | 156.30579 | 33808 ft | 419 kts | 292° |
| 2026-05-08 06:23 | -36.52642 | 156.24183 | 33810 ft | 419 kts | 292° |
| 2026-05-08 06:23 | -36.49969 | 156.17746 | 33815 ft | 419 kts | 292° |
| 2026-05-08 06:24 | -36.47288 | 156.11319 | 33817 ft | 419 kts | 292° |
| 2026-05-08 06:24 | -36.44597 | 156.04891 | 33823 ft | 419 kts | 292° |
| 2026-05-08 06:25 | -36.41907 | 155.98473 | 33821 ft | 419 kts | 292° |
| 2026-05-08 06:25 | -36.39219 | 155.92055 | 33827 ft | 419 kts | 292° |
| 2026-05-08 06:26 | -36.36523 | 155.85639 | 33832 ft | 419 kts | 292° |
| 2026-05-08 06:26 | -36.33824 | 155.79234 | 33834 ft | 419 kts | 292° |
| 2026-05-08 06:27 | -36.31120 | 155.72824 | 33838 ft | 419 kts | 292° |
| 2026-05-08 06:27 | -36.28429 | 155.66459 | 33840 ft | 420 kts | 292° |
| 2026-05-08 06:28 | -36.25721 | 155.60055 | 33846 ft | 420 kts | 292° |
| 2026-05-08 06:28 | -36.23004 | 155.53652 | 33854 ft | 420 kts | 292° |
| 2026-05-08 06:29 | -36.20281 | 155.47253 | 33856 ft | 420 kts | 292° |
| 2026-05-08 06:29 | -36.17551 | 155.40852 | 33859 ft | 420 kts | 292° |
| 2026-05-08 06:30 | -36.14816 | 155.34454 | 33866 ft | 421 kts | 291° |
| 2026-05-08 06:30 | -36.12099 | 155.28101 | 33868 ft | 421 kts | 291° |
| 2026-05-08 06:31 | -36.09356 | 155.21707 | 33871 ft | 421 kts | 291° |
| 2026-05-08 06:31 | -36.06613 | 155.15312 | 33873 ft | 421 kts | 291° |
| 2026-05-08 06:32 | -36.03865 | 155.08918 | 33878 ft | 421 kts | 291° |
| 2026-05-08 06:32 | -36.00966 | 155.02601 | 33887 ft | 428 kts | 299° |
| 2026-05-08 06:33 | -35.96675 | 154.97341 | 33886 ft | 446 kts | 318° |
| 2026-05-08 06:33 | -35.91458 | 154.93194 | 33891 ft | 449 kts | 320° |
| 2026-05-08 06:34 | -35.86200 | 154.89019 | 33892 ft | 448 kts | 319° |
| 2026-05-08 06:34 | -35.80973 | 154.84867 | 33897 ft | 448 kts | 319° |
| 2026-05-08 06:35 | -35.75744 | 154.80717 | 33898 ft | 447 kts | 319° |
| 2026-05-08 06:35 | -35.70514 | 154.76592 | 33906 ft | 446 kts | 319° |
| 2026-05-08 06:36 | -35.65294 | 154.72468 | 33906 ft | 445 kts | 319° |
| 2026-05-08 06:36 | -35.60337 | 154.68052 | 33906 ft | 433 kts | 308° |
| 2026-05-08 06:37 | -35.56392 | 154.62603 | 33916 ft | 425 kts | 302° |
| 2026-05-08 06:37 | -35.52544 | 154.57086 | 33920 ft | 426 kts | 303° |
| 2026-05-08 06:38 | -35.48673 | 154.51583 | 33922 ft | 425 kts | 302° |
| 2026-05-08 06:38 | -35.44816 | 154.46082 | 33926 ft | 425 kts | 302° |
| 2026-05-08 06:39 | -35.40958 | 154.40587 | 33929 ft | 425 kts | 302° |
| 2026-05-08 06:39 | -35.37126 | 154.35129 | 33933 ft | 425 kts | 302° |
| 2026-05-08 06:40 | -35.33259 | 154.29641 | 33939 ft | 425 kts | 302° |
| 2026-05-08 06:40 | -35.29397 | 154.24159 | 33940 ft | 425 kts | 302° |
| 2026-05-08 06:41 | -35.25531 | 154.18676 | 33947 ft | 425 kts | 302° |
| 2026-05-08 06:41 | -35.21663 | 154.13203 | 33950 ft | 425 kts | 302° |
| 2026-05-08 06:42 | -35.17788 | 154.07739 | 33956 ft | 425 kts | 302° |
| 2026-05-08 06:42 | -35.13908 | 154.02275 | 33961 ft | 425 kts | 302° |
| 2026-05-08 06:43 | -35.10053 | 153.96856 | 33962 ft | 425 kts | 302° |
| 2026-05-08 06:43 | -35.06171 | 153.91401 | 33965 ft | 426 kts | 302° |
| 2026-05-08 06:44 | -35.02284 | 153.85944 | 33967 ft | 426 kts | 302° |
| 2026-05-08 06:44 | -34.98390 | 153.80489 | 33983 ft | 427 kts | 302° |
| 2026-05-08 06:45 | -34.94486 | 153.75031 | 33981 ft | 427 kts | 302° |
| 2026-05-08 06:45 | -34.90581 | 153.69571 | 33980 ft | 428 kts | 302° |
| 2026-05-08 06:46 | -34.86689 | 153.64150 | 33983 ft | 428 kts | 303° |
| 2026-05-08 06:46 | -34.82758 | 153.58691 | 33993 ft | 429 kts | 303° |
| 2026-05-08 06:47 | -34.78825 | 153.53224 | 33994 ft | 430 kts | 303° |
| 2026-05-08 06:47 | -34.74882 | 153.47756 | 33996 ft | 430 kts | 303° |
| 2026-05-08 06:48 | -34.70933 | 153.42284 | 34002 ft | 431 kts | 303° |
| 2026-05-08 06:48 | -34.66970 | 153.36802 | 34002 ft | 432 kts | 303° |
| 2026-05-08 06:49 | -34.62998 | 153.31322 | 34009 ft | 433 kts | 303° |
| 2026-05-08 06:49 | -34.59021 | 153.25838 | 34011 ft | 434 kts | 303° |
| 2026-05-08 06:50 | -34.55030 | 153.20341 | 34016 ft | 434 kts | 303° |
| 2026-05-08 06:50 | -34.53032 | 153.17589 | 33807 ft | 434 kts | 303° |
| 2026-05-08 06:50 | -34.51014 | 153.14807 | 32632 ft | 445 kts | 303° |
| 2026-05-08 06:51 | -34.48986 | 153.12012 | 31772 ft | 448 kts | 302° |
| 2026-05-08 06:51 | -34.46933 | 153.09200 | 31184 ft | 444 kts | 302° |
| 2026-05-08 06:51 | -34.44893 | 153.06419 | 30631 ft | 439 kts | 302° |
| 2026-05-08 06:51 | -34.42876 | 153.03672 | 30151 ft | 433 kts | 302° |
| 2026-05-08 06:52 | -34.40891 | 153.00968 | 29611 ft | 427 kts | 302° |
| 2026-05-08 06:52 | -34.38928 | 152.98287 | 29002 ft | 424 kts | 302° |
| 2026-05-08 06:52 | -34.36980 | 152.95625 | 28299 ft | 422 kts | 302° |
| 2026-05-08 06:52 | -34.35040 | 152.92975 | 27760 ft | 417 kts | 302° |
| 2026-05-08 06:53 | -34.33131 | 152.90368 | 27279 ft | 411 kts | 302° |
| 2026-05-08 06:53 | -34.31246 | 152.87792 | 26794 ft | 406 kts | 302° |
| 2026-05-08 06:53 | -34.29380 | 152.85249 | 26324 ft | 402 kts | 302° |
| 2026-05-08 06:53 | -34.27533 | 152.82739 | 25863 ft | 397 kts | 302° |
| 2026-05-08 06:54 | -34.25704 | 152.80260 | 25400 ft | 393 kts | 302° |
| 2026-05-08 06:54 | -34.23896 | 152.77804 | 24969 ft | 389 kts | 302° |
| 2026-05-08 06:54 | -34.22103 | 152.75364 | 24528 ft | 387 kts | 302° |
| 2026-05-08 06:54 | -34.20322 | 152.72941 | 24111 ft | 384 kts | 302° |
| 2026-05-08 06:55 | -34.18550 | 152.70537 | 23697 ft | 383 kts | 302° |
| 2026-05-08 06:55 | -34.16783 | 152.68143 | 23243 ft | 380 kts | 302° |
| 2026-05-08 06:55 | -34.15033 | 152.65775 | 22835 ft | 376 kts | 302° |
| 2026-05-08 06:55 | -34.13300 | 152.63435 | 22444 ft | 372 kts | 302° |
| 2026-05-08 06:56 | -34.11589 | 152.61121 | 22046 ft | 368 kts | 302° |
| 2026-05-08 06:56 | -34.09999 | 152.58758 | 21640 ft | 355 kts | 294° |
| 2026-05-08 06:56 | -34.08829 | 152.56210 | 21253 ft | 341 kts | 284° |
| 2026-05-08 06:56 | -34.08081 | 152.53597 | 20876 ft | 328 kts | 276° |
| 2026-05-08 06:57 | -34.07700 | 152.50900 | 20503 ft | 317 kts | 269° |
| 2026-05-08 06:57 | -34.07465 | 152.48307 | 20132 ft | 314 kts | 269° |
| 2026-05-08 06:57 | -34.07222 | 152.45707 | 19762 ft | 310 kts | 269° |
| 2026-05-08 06:57 | -34.06978 | 152.43136 | 19394 ft | 308 kts | 269° |
| 2026-05-08 06:58 | -34.06733 | 152.40579 | 19021 ft | 306 kts | 269° |
| 2026-05-08 06:58 | -34.06488 | 152.38039 | 18647 ft | 304 kts | 269° |
| 2026-05-08 06:58 | -34.06247 | 152.35512 | 18263 ft | 303 kts | 269° |
| 2026-05-08 06:58 | -34.06009 | 152.32994 | 17860 ft | 301 kts | 269° |
| 2026-05-08 06:59 | -34.05775 | 152.30486 | 17483 ft | 301 kts | 269° |
| 2026-05-08 06:59 | -34.05541 | 152.27983 | 17106 ft | 300 kts | 269° |
| 2026-05-08 06:59 | -34.05302 | 152.25488 | 16731 ft | 299 kts | 269° |
| 2026-05-08 06:59 | -34.05063 | 152.22998 | 16360 ft | 298 kts | 269° |
| 2026-05-08 07:00 | -34.04825 | 152.20516 | 15984 ft | 298 kts | 269° |
| 2026-05-08 07:00 | -34.04586 | 152.18039 | 15611 ft | 297 kts | 269° |
| 2026-05-08 07:00 | -34.04346 | 152.15569 | 15232 ft | 296 kts | 270° |
| 2026-05-08 07:00 | -34.04103 | 152.13105 | 14862 ft | 296 kts | 270° |
| 2026-05-08 07:01 | -34.03863 | 152.10648 | 14487 ft | 295 kts | 270° |
| 2026-05-08 07:01 | -34.03626 | 152.08196 | 14090 ft | 294 kts | 270° |
| 2026-05-08 07:01 | -34.03393 | 152.05780 | 13678 ft | 293 kts | 270° |
| 2026-05-08 07:01 | -34.03152 | 152.03342 | 13277 ft | 293 kts | 270° |
| 2026-05-08 07:02 | -34.02909 | 152.00909 | 12875 ft | 292 kts | 270° |
| 2026-05-08 07:02 | -34.02664 | 151.98483 | 12487 ft | 291 kts | 271° |
| 2026-05-08 07:02 | -34.02421 | 151.96059 | 12095 ft | 291 kts | 271° |
| 2026-05-08 07:02 | -34.02181 | 151.93648 | 11709 ft | 290 kts | 271° |
| 2026-05-08 07:03 | -34.01941 | 151.91237 | 11323 ft | 289 kts | 271° |
| 2026-05-08 07:03 | -34.01698 | 151.88839 | 10943 ft | 288 kts | 271° |
| 2026-05-08 07:03 | -34.01451 | 151.86447 | 10557 ft | 287 kts | 271° |
| 2026-05-08 07:03 | -34.01205 | 151.84089 | 10345 ft | 280 kts | 271° |
| 2026-05-08 07:04 | -34.00966 | 151.81791 | 10217 ft | 273 kts | 271° |
| 2026-05-08 07:04 | -34.00732 | 151.79509 | 10131 ft | 275 kts | 272° |
| 2026-05-08 07:04 | -34.00273 | 151.77251 | 10002 ft | 281 kts | 285° |
| 2026-05-08 07:04 | -33.99433 | 151.75086 | 9565 ft | 290 kts | 290° |
| 2026-05-08 07:05 | -33.98543 | 151.72915 | 9235 ft | 286 kts | 290° |
| 2026-05-08 07:05 | -33.97658 | 151.70775 | 8862 ft | 285 kts | 290° |
| 2026-05-08 07:05 | -33.96781 | 151.68650 | 8340 ft | 283 kts | 290° |
| 2026-05-08 07:05 | -33.95908 | 151.66530 | 7769 ft | 281 kts | 290° |
| 2026-05-08 07:06 | -33.95053 | 151.64455 | 7167 ft | 280 kts | 290° |
| 2026-05-08 07:06 | -33.94189 | 151.62360 | 6550 ft | 279 kts | 290° |
| 2026-05-08 07:06 | -33.93325 | 151.60267 | 5951 ft | 277 kts | 290° |
| 2026-05-08 07:06 | -33.92478 | 151.58215 | 5430 ft | 271 kts | 290° |
| 2026-05-08 07:07 | -33.91647 | 151.56213 | 4959 ft | 264 kts | 290° |
| 2026-05-08 07:07 | -33.90838 | 151.54258 | 4465 ft | 258 kts | 290° |
| 2026-05-08 07:07 | -33.90045 | 151.52341 | 3999 ft | 253 kts | 290° |
| 2026-05-08 07:07 | -33.89282 | 151.50498 | 3816 ft | 239 kts | 290° |
| 2026-05-08 07:08 | -33.88560 | 151.48758 | 3770 ft | 225 kts | 290° |
| 2026-05-08 07:08 | -33.87918 | 151.47077 | 3678 ft | 217 kts | 281° |
| 2026-05-08 07:08 | -33.87694 | 151.45330 | 3604 ft | 208 kts | 263° |
| 2026-05-08 07:08 | -33.87908 | 151.43639 | 3508 ft | 203 kts | 251° |
| 2026-05-08 07:09 | -33.88286 | 151.42007 | 3425 ft | 201 kts | 250° |
| 2026-05-08 07:09 | -33.88673 | 151.40399 | 3333 ft | 199 kts | 250° |
| 2026-05-08 07:09 | -33.89052 | 151.38809 | 3273 ft | 193 kts | 250° |
| 2026-05-08 07:09 | -33.89404 | 151.37324 | 3124 ft | 177 kts | 250° |
| 2026-05-08 07:10 | -33.89732 | 151.35948 | 2913 ft | 166 kts | 250° |
| 2026-05-08 07:10 | -33.90040 | 151.34653 | 2715 ft | 157 kts | 250° |
| 2026-05-08 07:10 | -33.90334 | 151.33418 | 2503 ft | 150 kts | 251° |
| 2026-05-08 07:10 | -33.90620 | 151.32216 | 2306 ft | 149 kts | 251° |
| 2026-05-08 07:11 | -33.90903 | 151.31030 | 2106 ft | 150 kts | 252° |
| 2026-05-08 07:11 | -33.91189 | 151.29826 | 1938 ft | 149 kts | 252° |
| 2026-05-08 07:11 | -33.91470 | 151.28640 | 1755 ft | 143 kts | 252° |
| 2026-05-08 07:11 | -33.91739 | 151.27504 | 1563 ft | 139 kts | 253° |
| 2026-05-08 07:12 | -33.92002 | 151.26393 | 1361 ft | 138 kts | 253° |
| 2026-05-08 07:12 | -33.92264 | 151.25289 | 1161 ft | 136 kts | 253° |
| 2026-05-08 07:12 | -33.92522 | 151.24198 | 991 ft | 136 kts | 254° |
| 2026-05-08 07:12 | -33.92781 | 151.23106 | 802 ft | 135 kts | 255° |
| 2026-05-08 07:13 | -33.93038 | 151.22022 | 604 ft | 136 kts | 254° |
| 2026-05-08 07:13 | -33.93296 | 151.20927 | 414 ft | 135 kts | 254° |
| 2026-05-08 07:13 | -33.93553 | 151.19848 | 267 ft | 134 kts | 256° |
| 2026-05-08 07:13 | -33.93805 | 151.18768 | 51 ft | 134 kts | 255° |
| 2026-05-08 07:14 | -33.94025 | 151.17831 | 28 ft | 94 kts | 254° |
| 2026-05-08 07:14 | -33.94158 | 151.17277 | 28 ft | 44 kts | 254° |
| 2026-05-08 07:14 | -33.94222 | 151.17008 | 29 ft | 25 kts | 254° |
| 2026-05-08 07:14 | -33.94233 | 151.16888 | 28 ft | 12 kts | 294° |
| 2026-05-08 07:15 | -33.94183 | 151.16852 | 28 ft | 5 kts | 343° |
| 2026-05-08 07:15 | -33.94166 | 151.16836 | 29 ft | 4 kts | 307° |
| 2026-05-08 07:15 | -33.94164 | 151.16803 | 29 ft | 4 kts | 262° |
| 2026-05-08 07:15 | -33.94172 | 151.16761 | 29 ft | 6 kts | 253° |
| 2026-05-08 07:16 | -33.94193 | 151.16675 | 29 ft | 9 kts | 255° |
| 2026-05-08 07:16 | -33.94205 | 151.16625 | 29 ft | 10 kts | 254° |
| 2026-05-08 07:16 | -33.94224 | 151.16543 | 29 ft | 11 kts | 255° |
| 2026-05-08 07:16 | -33.94245 | 151.16455 | 29 ft | 12 kts | 253° |
| 2026-05-08 07:17 | -33.94262 | 151.16368 | 29 ft | 10 kts | 272° |
| 2026-05-08 07:17 | -33.94216 | 151.16319 | 30 ft | 9 kts | 341° |
| 2026-05-08 07:17 | -33.94151 | 151.16296 | 30 ft | 10 kts | 345° |
| 2026-05-08 07:17 | -33.94094 | 151.16278 | 30 ft | 8 kts | 349° |
| 2026-05-08 07:18 | -33.94043 | 151.16282 | 30 ft | 5 kts | 10° |
| 2026-05-08 07:18 | -33.94012 | 151.16296 | 30 ft | 5 kts | 44° |
| 2026-05-08 07:18 | -33.94003 | 151.16337 | 30 ft | 6 kts | 79° |
| 2026-05-08 07:18 | -33.93997 | 151.16382 | 30 ft | 4 kts | 82° |
| 2026-05-08 07:19 | -33.93995 | 151.16401 | 30 ft | 1 kts | 83° |
| 2026-05-08 07:19 | -33.93995 | 151.16402 | 30 ft | 0 kts | 83° |